sensor_id;sensor_type;location;lat;lon;timestamp;pressure;altitude;pressure_sealevel;temperature;humidity
20368;BME280;10343;52.402;9.796;2022-12-18T00:00:03;102483.25;;;-4.14;77.26
20368;BME280;10343;52.402;9.796;2022-12-18T00:02:41;102479.38;;;-4.07;77.35
20368;BME280;10343;52.402;9.796;2022-12-18T00:05:10;102487.72;;;-4.25;77.21
20368;BME280;10343;52.402;9.796;2022-12-18T00:07:38;102487.22;;;-4.19;77.64
20368;BME280;10343;52.402;9.796;2022-12-18T00:10:07;102477.47;;;-4.10;76.84
20368;BME280;10343;52.402;9.796;2022-12-18T00:12:35;102483.44;;;-4.11;77.17
20368;BME280;10343;52.402;9.796;2022-12-18T00:15:04;102491.13;;;-3.99;77.15
20368;BME280;10343;52.402;9.796;2022-12-18T00:17:33;102504.56;;;-4.18;77.13
20368;BME280;10343;52.402;9.796;2022-12-18T00:20:15;102511.81;;;-4.26;77.33
20368;BME280;10343;52.402;9.796;2022-12-18T00:22:49;102514.00;;;-4.19;77.27
20368;BME280;10343;52.402;9.796;2022-12-18T00:25:22;102516.13;;;-4.13;76.85
20368;BME280;10343;52.402;9.796;2022-12-18T00:27:52;102515.75;;;-4.06;76.86
20368;BME280;10343;52.402;9.796;2022-12-18T00:30:21;102517.31;;;-4.08;77.02
20368;BME280;10343;52.402;9.796;2022-12-18T00:32:49;102510.50;;;-4.33;77.48
20368;BME280;10343;52.402;9.796;2022-12-18T00:35:21;102507.81;;;-4.34;77.89
20368;BME280;10343;52.402;9.796;2022-12-18T00:37:49;102514.09;;;-4.31;77.39
20368;BME280;10343;52.402;9.796;2022-12-18T00:40:22;102504.63;;;-4.30;77.60
20368;BME280;10343;52.402;9.796;2022-12-18T00:43:00;102494.47;;;-4.27;77.48
20368;BME280;10343;52.402;9.796;2022-12-18T00:46:09;102497.19;;;-4.25;77.83
20368;BME280;10343;52.402;9.796;2022-12-18T00:49:00;102506.09;;;-4.47;77.72
20368;BME280;10343;52.402;9.796;2022-12-18T01:00:21;102527.34;;;-4.26;76.98
20368;BME280;10343;52.402;9.796;2022-12-18T01:03:00;102528.97;;;-4.28;77.82
20368;BME280;10343;52.402;9.796;2022-12-18T01:05:38;102526.13;;;-4.45;78.64
20368;BME280;10343;52.402;9.796;2022-12-18T01:08:12;102513.91;;;-4.34;78.11
20368;BME280;10343;52.402;9.796;2022-12-18T01:10:55;102515.47;;;-4.36;77.99
20368;BME280;10343;52.402;9.796;2022-12-18T01:13:37;102510.09;;;-4.39;78.49
20368;BME280;10343;52.402;9.796;2022-12-18T01:16:11;102515.47;;;-4.36;78.23
20368;BME280;10343;52.402;9.796;2022-12-18T01:18:43;102516.69;;;-4.31;78.00
20368;BME280;10343;52.402;9.796;2022-12-18T01:21:18;102515.78;;;-4.45;78.34
20368;BME280;10343;52.402;9.796;2022-12-18T01:23:52;102518.84;;;-4.37;78.18
20368;BME280;10343;52.402;9.796;2022-12-18T01:26:23;102515.25;;;-4.52;78.15
20368;BME280;10343;52.402;9.796;2022-12-18T01:28:58;102511.09;;;-4.50;78.00
20368;BME280;10343;52.402;9.796;2022-12-18T01:31:37;102523.31;;;-4.48;78.30
20368;BME280;10343;52.402;9.796;2022-12-18T01:34:09;102517.53;;;-4.44;78.30
20368;BME280;10343;52.402;9.796;2022-12-18T01:36:53;102523.13;;;-4.51;78.83
20368;BME280;10343;52.402;9.796;2022-12-18T01:39:23;102517.44;;;-4.45;78.15
20368;BME280;10343;52.402;9.796;2022-12-18T01:41:52;102520.25;;;-4.42;78.01
20368;BME280;10343;52.402;9.796;2022-12-18T01:44:55;102527.66;;;-4.35;78.06
20368;BME280;10343;52.402;9.796;2022-12-18T01:48:39;102529.22;;;-4.37;77.54
20368;BME280;10343;52.402;9.796;2022-12-18T01:51:32;102538.41;;;-4.42;77.77
20368;BME280;10343;52.402;9.796;2022-12-18T01:54:12;102530.53;;;-4.30;78.03
20368;BME280;10343;52.402;9.796;2022-12-18T01:56:55;102529.03;;;-4.40;77.92
20368;BME280;10343;52.402;9.796;2022-12-18T02:00:27;102535.56;;;-4.58;78.66
20368;BME280;10343;52.402;9.796;2022-12-18T02:03:18;102539.56;;;-4.50;78.27
20368;BME280;10343;52.402;9.796;2022-12-18T02:05:56;102546.16;;;-4.42;77.92
20368;BME280;10343;52.402;9.796;2022-12-18T02:08:30;102549.06;;;-4.37;77.85
20368;BME280;10343;52.402;9.796;2022-12-18T02:11:05;102553.22;;;-4.39;77.72
20368;BME280;10343;52.402;9.796;2022-12-18T02:13:41;102550.16;;;-4.34;77.48
20368;BME280;10343;52.402;9.796;2022-12-18T02:16:19;102550.53;;;-4.41;77.53
20368;BME280;10343;52.402;9.796;2022-12-18T02:18:53;102545.00;;;-4.34;77.62
20368;BME280;10343;52.402;9.796;2022-12-18T02:21:33;102539.22;;;-4.55;78.09
20368;BME280;10343;52.402;9.796;2022-12-18T02:24:18;102543.94;;;-4.49;77.98
20368;BME280;10343;52.402;9.796;2022-12-18T02:26:52;102557.47;;;-4.53;77.73
20368;BME280;10343;52.402;9.796;2022-12-18T02:29:25;102549.88;;;-4.64;78.02
20368;BME280;10343;52.402;9.796;2022-12-18T02:31:57;102543.56;;;-4.67;78.26
20368;BME280;10343;52.402;9.796;2022-12-18T02:34:31;102542.38;;;-4.72;78.64
20368;BME280;10343;52.402;9.796;2022-12-18T02:37:04;102540.41;;;-4.63;77.98
20368;BME280;10343;52.402;9.796;2022-12-18T02:39:36;102526.63;;;-4.50;77.76
20368;BME280;10343;52.402;9.796;2022-12-18T02:42:07;102529.06;;;-4.52;77.49
20368;BME280;10343;52.402;9.796;2022-12-18T02:44:42;102530.47;;;-4.57;77.77
20368;BME280;10343;52.402;9.796;2022-12-18T02:47:12;102529.56;;;-4.57;77.74
20368;BME280;10343;52.402;9.796;2022-12-18T02:49:47;102529.78;;;-4.54;77.89
20368;BME280;10343;52.402;9.796;2022-12-18T02:52:25;102533.75;;;-4.59;78.06
20368;BME280;10343;52.402;9.796;2022-12-18T02:55:10;102521.50;;;-4.62;78.56
20368;BME280;10343;52.402;9.796;2022-12-18T02:57:47;102527.34;;;-4.65;78.62
20368;BME280;10343;52.402;9.796;2022-12-18T03:00:23;102521.22;;;-4.53;78.29
20368;BME280;10343;52.402;9.796;2022-12-18T03:02:56;102533.50;;;-4.76;78.93
20368;BME280;10343;52.402;9.796;2022-12-18T03:05:30;102532.31;;;-4.68;79.14
20368;BME280;10343;52.402;9.796;2022-12-18T03:08:03;102526.94;;;-4.71;78.95
20368;BME280;10343;52.402;9.796;2022-12-18T03:10:39;102523.13;;;-4.76;79.46
20368;BME280;10343;52.402;9.796;2022-12-18T03:13:12;102524.03;;;-4.75;78.75
20368;BME280;10343;52.402;9.796;2022-12-18T03:15:44;102521.88;;;-4.56;78.22
20368;BME280;10343;52.402;9.796;2022-12-18T03:18:17;102521.53;;;-4.74;78.96
20368;BME280;10343;52.402;9.796;2022-12-18T03:20:47;102512.59;;;-4.66;79.09
20368;BME280;10343;52.402;9.796;2022-12-18T03:23:22;102516.63;;;-4.83;79.07
20368;BME280;10343;52.402;9.796;2022-12-18T03:25:55;102512.34;;;-4.82;80.10
20368;BME280;10343;52.402;9.796;2022-12-18T03:28:39;102507.44;;;-4.91;80.07
20368;BME280;10343;52.402;9.796;2022-12-18T03:31:12;102510.78;;;-4.80;79.45
20368;BME280;10343;52.402;9.796;2022-12-18T03:33:46;102507.16;;;-4.82;79.54
20368;BME280;10343;52.402;9.796;2022-12-18T03:36:17;102508.72;;;-4.72;79.63
20368;BME280;10343;52.402;9.796;2022-12-18T03:38:46;102516.00;;;-4.67;79.53
20368;BME280;10343;52.402;9.796;2022-12-18T03:41:19;102529.34;;;-4.61;79.35
20368;BME280;10343;52.402;9.796;2022-12-18T03:44:16;102522.19;;;-4.65;79.23
20368;BME280;10343;52.402;9.796;2022-12-18T03:46:54;102521.78;;;-4.71;79.25
20368;BME280;10343;52.402;9.796;2022-12-18T03:49:27;102522.00;;;-4.80;79.44
20368;BME280;10343;52.402;9.796;2022-12-18T03:52:05;102520.28;;;-4.92;79.70
20368;BME280;10343;52.402;9.796;2022-12-18T03:54:38;102513.00;;;-4.73;79.50
20368;BME280;10343;52.402;9.796;2022-12-18T03:57:16;102519.19;;;-4.71;79.04
20368;BME280;10343;52.402;9.796;2022-12-18T03:59:50;102522.84;;;-4.81;79.51
20368;BME280;10343;52.402;9.796;2022-12-18T04:02:23;102526.50;;;-4.77;79.25
20368;BME280;10343;52.402;9.796;2022-12-18T04:04:58;102532.13;;;-4.71;79.14
20368;BME280;10343;52.402;9.796;2022-12-18T04:07:27;102526.50;;;-4.77;79.08
20368;BME280;10343;52.402;9.796;2022-12-18T04:09:58;102538.03;;;-4.85;79.50
20368;BME280;10343;52.402;9.796;2022-12-18T04:12:30;102532.44;;;-4.91;79.50
20368;BME280;10343;52.402;9.796;2022-12-18T04:15:00;102530.19;;;-4.99;80.15
20368;BME280;10343;52.402;9.796;2022-12-18T04:17:28;102531.00;;;-5.00;79.71
20368;BME280;10343;52.402;9.796;2022-12-18T04:19:57;102527.41;;;-5.02;79.96
20368;BME280;10343;52.402;9.796;2022-12-18T04:22:24;102533.34;;;-5.03;79.83
20368;BME280;10343;52.402;9.796;2022-12-18T04:24:57;102530.75;;;-5.03;80.23
20368;BME280;10343;52.402;9.796;2022-12-18T04:27:33;102524.38;;;-5.08;80.24
20368;BME280;10343;52.402;9.796;2022-12-18T04:30:06;102520.22;;;-5.06;80.07
20368;BME280;10343;52.402;9.796;2022-12-18T04:32:34;102526.72;;;-4.99;79.45
20368;BME280;10343;52.402;9.796;2022-12-18T04:35:03;102530.19;;;-4.99;79.64
20368;BME280;10343;52.402;9.796;2022-12-18T04:37:34;102526.59;;;-5.01;79.34
20368;BME280;10343;52.402;9.796;2022-12-18T04:40:02;102530.34;;;-5.09;79.95
20368;BME280;10343;52.402;9.796;2022-12-18T04:42:39;102526.22;;;-5.19;80.29
20368;BME280;10343;52.402;9.796;2022-12-18T04:45:09;102526.44;;;-5.16;80.62
20368;BME280;10343;52.402;9.796;2022-12-18T04:47:37;102512.38;;;-5.19;80.68
20368;BME280;10343;52.402;9.796;2022-12-18T04:50:06;102514.13;;;-5.32;80.87
20368;BME280;10343;52.402;9.796;2022-12-18T04:52:33;102507.81;;;-5.35;81.09
20368;BME280;10343;52.402;9.796;2022-12-18T04:55:01;102514.13;;;-5.32;81.10
20368;BME280;10343;52.402;9.796;2022-12-18T04:57:29;102515.94;;;-5.42;81.33
20368;BME280;10343;52.402;9.796;2022-12-18T04:59:57;102520.06;;;-5.33;81.32
20368;BME280;10343;52.402;9.796;2022-12-18T05:02:26;102516.47;;;-5.35;80.99
20368;BME280;10343;52.402;9.796;2022-12-18T05:04:54;102515.47;;;-5.37;81.70
20368;BME280;10343;52.402;9.796;2022-12-18T05:07:22;102517.69;;;-5.30;81.38
20368;BME280;10343;52.402;9.796;2022-12-18T05:09:50;102516.34;;;-5.24;81.36
20368;BME280;10343;52.402;9.796;2022-12-18T05:12:18;102521.50;;;-5.24;81.18
20368;BME280;10343;52.402;9.796;2022-12-18T05:14:46;102524.31;;;-5.21;81.02
20368;BME280;10343;52.402;9.796;2022-12-18T05:17:14;102530.25;;;-5.22;80.79
20368;BME280;10343;52.402;9.796;2022-12-18T05:19:46;102537.66;;;-5.15;80.77
20368;BME280;10343;52.402;9.796;2022-12-18T05:22:14;102530.47;;;-5.19;80.55
20368;BME280;10343;52.402;9.796;2022-12-18T05:24:42;102540.41;;;-5.25;80.58
20368;BME280;10343;52.402;9.796;2022-12-18T05:27:10;102539.81;;;-5.21;80.51
20368;BME280;10343;52.402;9.796;2022-12-18T05:29:38;102529.28;;;-5.36;79.90
20368;BME280;10343;52.402;9.796;2022-12-18T05:32:06;102534.22;;;-5.27;80.64
20368;BME280;10343;52.402;9.796;2022-12-18T05:34:33;102534.81;;;-5.32;80.58
20368;BME280;10343;52.402;9.796;2022-12-18T05:37:03;102545.78;;;-5.22;80.40
20368;BME280;10343;52.402;9.796;2022-12-18T05:39:31;102551.41;;;-5.28;80.64
20368;BME280;10343;52.402;9.796;2022-12-18T05:41:59;102544.34;;;-5.31;80.83
20368;BME280;10343;52.402;9.796;2022-12-18T05:44:29;102546.91;;;-5.19;80.13
20368;BME280;10343;52.402;9.796;2022-12-18T05:46:57;102550.94;;;-5.22;80.10
20368;BME280;10343;52.402;9.796;2022-12-18T05:49:26;102554.56;;;-5.20;80.12
20368;BME280;10343;52.402;9.796;2022-12-18T05:51:54;102551.31;;;-5.30;79.98
20368;BME280;10343;52.402;9.796;2022-12-18T05:54:23;102557.25;;;-5.31;80.47
20368;BME280;10343;52.402;9.796;2022-12-18T05:56:53;102568.44;;;-5.32;80.31
20368;BME280;10343;52.402;9.796;2022-12-18T05:59:21;102565.13;;;-5.29;80.08
20368;BME280;10343;52.402;9.796;2022-12-18T06:01:49;102563.56;;;-5.27;80.44
20368;BME280;10343;52.402;9.796;2022-12-18T06:04:17;102562.22;;;-5.34;80.30
20368;BME280;10343;52.402;9.796;2022-12-18T06:06:45;102558.41;;;-5.39;80.39
20368;BME280;10343;52.402;9.796;2022-12-18T06:09:13;102550.53;;;-5.40;80.24
20368;BME280;10343;52.402;9.796;2022-12-18T06:11:42;102553.91;;;-5.41;80.16
20368;BME280;10343;52.402;9.796;2022-12-18T06:14:11;102553.38;;;-5.49;80.43
20368;BME280;10343;52.402;9.796;2022-12-18T06:16:39;102559.53;;;-5.47;80.87
20368;BME280;10343;52.402;9.796;2022-12-18T06:19:07;102559.53;;;-5.47;80.54
20368;BME280;10343;52.402;9.796;2022-12-18T06:21:35;102565.28;;;-5.51;80.64
20368;BME280;10343;52.402;9.796;2022-12-18T06:24:03;102569.88;;;-5.47;80.50
20368;BME280;10343;52.402;9.796;2022-12-18T06:26:31;102561.44;;;-5.44;80.35
20368;BME280;10343;52.402;9.796;2022-12-18T06:29:00;102558.66;;;-5.36;80.59
20368;BME280;10343;52.402;9.796;2022-12-18T06:31:28;102557.72;;;-5.24;79.96
20368;BME280;10343;52.402;9.796;2022-12-18T06:33:56;102558.66;;;-5.36;79.33
20368;BME280;10343;52.402;9.796;2022-12-18T06:36:24;102559.84;;;-5.19;79.77
20368;BME280;10343;52.402;9.796;2022-12-18T06:38:52;102551.63;;;-5.13;79.26
20368;BME280;10343;52.402;9.796;2022-12-18T06:41:21;102554.56;;;-5.20;79.78
20368;BME280;10343;52.402;9.796;2022-12-18T06:43:49;102558.13;;;-5.18;79.90
20368;BME280;10343;52.402;9.796;2022-12-18T06:46:25;102566.25;;;-5.14;79.54
20368;BME280;10343;52.402;9.796;2022-12-18T06:48:53;102568.94;;;-5.12;79.62
20368;BME280;10343;52.402;9.796;2022-12-18T06:51:22;102573.66;;;-5.18;79.37
20368;BME280;10343;52.402;9.796;2022-12-18T06:53:51;102575.00;;;-5.12;79.49
20368;BME280;10343;52.402;9.796;2022-12-18T06:56:19;102573.31;;;-5.11;79.39
20368;BME280;10343;52.402;9.796;2022-12-18T06:58:46;102571.75;;;-5.09;79.16
20368;BME280;10343;52.402;9.796;2022-12-18T07:01:18;102580.38;;;-4.97;79.21
20368;BME280;10343;52.402;9.796;2022-12-18T07:03:51;102576.22;;;-5.06;79.30
20368;BME280;10343;52.402;9.796;2022-12-18T07:06:21;102578.16;;;-5.16;79.81
20368;BME280;10343;52.402;9.796;2022-12-18T07:08:49;102584.34;;;-5.14;79.57
20368;BME280;10343;52.402;9.796;2022-12-18T07:11:18;102586.03;;;-5.14;79.71
20368;BME280;10343;52.402;9.796;2022-12-18T07:13:47;102584.47;;;-5.12;79.70
20368;BME280;10343;52.402;9.796;2022-12-18T07:16:17;102589.97;;;-5.19;79.88
20368;BME280;10343;52.402;9.796;2022-12-18T07:18:52;102588.25;;;-5.07;79.80
20368;BME280;10343;52.402;9.796;2022-12-18T07:21:21;102598.53;;;-5.20;80.04
20368;BME280;10343;52.402;9.796;2022-12-18T07:23:49;102605.56;;;-5.06;80.13
20368;BME280;10343;52.402;9.796;2022-12-18T07:26:18;102611.88;;;-5.14;80.08
20368;BME280;10343;52.402;9.796;2022-12-18T07:28:47;102612.66;;;-5.15;79.80
20368;BME280;10343;52.402;9.796;2022-12-18T07:31:19;102612.66;;;-5.15;80.02
20368;BME280;10343;52.402;9.796;2022-12-18T07:33:48;102606.28;;;-5.20;79.74
20368;BME280;10343;52.402;9.796;2022-12-18T07:36:18;102599.66;;;-5.29;80.02
20368;BME280;10343;52.402;9.796;2022-12-18T07:38:50;102604.47;;;-5.21;79.82
20368;BME280;10343;52.402;9.796;2022-12-18T07:41:19;102616.19;;;-5.26;79.91
20368;BME280;10343;52.402;9.796;2022-12-18T07:43:47;102620.88;;;-5.21;79.61
20368;BME280;10343;52.402;9.796;2022-12-18T07:46:16;102628.91;;;-5.18;80.06
20368;BME280;10343;52.402;9.796;2022-12-18T07:48:44;102626.97;;;-5.20;79.60
20368;BME280;10343;52.402;9.796;2022-12-18T07:51:16;102635.41;;;-5.23;80.00
20368;BME280;10343;52.402;9.796;2022-12-18T07:53:58;102637.22;;;-5.22;79.70
20368;BME280;10343;52.402;9.796;2022-12-18T07:57:08;102628.31;;;-5.25;80.12
20368;BME280;10343;52.402;9.796;2022-12-18T08:03:00;102604.47;;;-5.21;80.26
20368;BME280;10343;52.402;9.796;2022-12-18T08:05:28;102604.69;;;-5.18;80.00
20368;BME280;10343;52.402;9.796;2022-12-18T08:07:58;102599.97;;;-5.12;79.99
20368;BME280;10343;52.402;9.796;2022-12-18T08:10:27;102605.56;;;-5.06;79.79
20368;BME280;10343;52.402;9.796;2022-12-18T08:12:55;102604.00;;;-5.04;79.64
20368;BME280;10343;52.402;9.796;2022-12-18T08:15:30;102601.75;;;-4.99;79.26
20368;BME280;10343;52.402;9.796;2022-12-18T08:17:58;102601.63;;;-5.01;78.83
20368;BME280;10343;52.402;9.796;2022-12-18T08:20:26;102595.09;;;-4.96;79.53
20368;BME280;10343;52.402;9.796;2022-12-18T08:22:54;102589.13;;;-4.95;79.30
20368;BME280;10343;52.402;9.796;2022-12-18T08:25:21;102597.22;;;-4.90;79.10
20368;BME280;10343;52.402;9.796;2022-12-18T08:27:51;102595.63;;;-4.88;78.36
20368;BME280;10343;52.402;9.796;2022-12-18T08:30:20;102600.34;;;-4.82;78.32
20368;BME280;10343;52.402;9.796;2022-12-18T08:32:51;102603.06;;;-4.81;78.68
20368;BME280;10343;52.402;9.796;2022-12-18T08:35:19;102596.38;;;-4.77;78.37
20368;BME280;10343;52.402;9.796;2022-12-18T08:37:50;102579.06;;;-4.78;78.42
20368;BME280;10343;52.402;9.796;2022-12-18T08:40:18;102579.91;;;-4.66;78.06
20368;BME280;10343;52.402;9.796;2022-12-18T08:42:46;102576.06;;;-4.59;78.15
20368;BME280;10343;52.402;9.796;2022-12-18T08:45:33;102573.81;;;-4.54;78.03
20368;BME280;10343;52.402;9.796;2022-12-18T08:48:01;102577.69;;;-4.48;77.45
20368;BME280;10343;52.402;9.796;2022-12-18T08:50:30;102572.84;;;-4.43;77.15
20368;BME280;10343;52.402;9.796;2022-12-18T08:52:58;102574.94;;;-4.37;77.85
20368;BME280;10343;52.402;9.796;2022-12-18T08:55:27;102580.66;;;-4.30;77.72
20368;BME280;10343;52.402;9.796;2022-12-18T08:57:56;102573.09;;;-4.27;77.47
20368;BME280;10343;52.402;9.796;2022-12-18T09:00:24;102570.50;;;-4.27;77.28
20368;BME280;10343;52.402;9.796;2022-12-18T09:02:54;102571.72;;;-4.21;77.10
20368;BME280;10343;52.402;9.796;2022-12-18T09:05:22;102566.16;;;-4.14;76.68
20368;BME280;10343;52.402;9.796;2022-12-18T09:07:52;102569.63;;;-4.14;76.84
20368;BME280;10343;52.402;9.796;2022-12-18T09:10:21;102570.06;;;-4.07;76.90
20368;BME280;10343;52.402;9.796;2022-12-18T09:12:49;102570.44;;;-4.01;76.89
20368;BME280;10343;52.402;9.796;2022-12-18T09:15:18;102571.47;;;-3.86;76.82
20368;BME280;10343;52.402;9.796;2022-12-18T09:17:47;102556.41;;;-3.78;76.04
20368;BME280;10343;52.402;9.796;2022-12-18T09:20:33;102545.03;;;-3.80;76.13
20368;BME280;10343;52.402;9.796;2022-12-18T09:23:08;102545.84;;;-3.81;76.14
20368;BME280;10343;52.402;9.796;2022-12-18T09:25:40;102546.66;;;-3.69;76.41
20368;BME280;10343;52.402;9.796;2022-12-18T09:28:12;102552.31;;;-3.48;75.80
20368;BME280;10343;52.402;9.796;2022-12-18T09:30:48;102546.53;;;-3.44;74.91
20368;BME280;10343;52.402;9.796;2022-12-18T09:33:18;102549.91;;;-3.45;75.70
20368;BME280;10343;52.402;9.796;2022-12-18T09:36:30;102552.19;;;-3.22;74.79
20368;BME280;10343;52.402;9.796;2022-12-18T09:39:39;102555.78;;;-3.20;75.05
20368;BME280;10343;52.402;9.796;2022-12-18T09:42:37;102554.56;;;-3.12;74.83
20368;BME280;10343;52.402;9.796;2022-12-18T09:45:30;102556.84;;;-3.03;74.34
20368;BME280;10343;52.402;9.796;2022-12-18T09:48:11;102559.13;;;-2.95;74.36
20368;BME280;10343;52.402;9.796;2022-12-18T09:50:42;102563.56;;;-2.92;74.20
20368;BME280;10343;52.402;9.796;2022-12-18T09:53:15;102561.88;;;-2.78;73.99
20368;BME280;10343;52.402;9.796;2022-12-18T09:55:46;102568.75;;;-2.50;73.11
20368;BME280;10343;52.402;9.796;2022-12-18T09:58:19;102580.41;;;-2.44;72.62
20368;BME280;10343;52.402;9.796;2022-12-18T10:00:51;102570.31;;;-2.52;72.37
20368;BME280;10343;52.402;9.796;2022-12-18T10:03:20;102567.28;;;-2.45;72.38
20368;BME280;10343;52.402;9.796;2022-12-18T10:05:57;102569.09;;;-2.44;72.74
20368;BME280;10343;52.402;9.796;2022-12-18T10:08:40;102562.91;;;-2.46;72.13
20368;BME280;10343;52.402;9.796;2022-12-18T10:11:37;102569.13;;;-2.14;71.33
20368;BME280;10343;52.402;9.796;2022-12-18T10:15:06;102574.53;;;-1.96;70.63
20368;BME280;10343;52.402;9.796;2022-12-18T10:17:45;102575.78;;;-1.90;70.32
20368;BME280;10343;52.402;9.796;2022-12-18T10:20:20;102575.94;;;-1.86;69.76
20368;BME280;10343;52.402;9.796;2022-12-18T10:22:56;102576.03;;;-1.70;69.77
20368;BME280;10343;52.402;9.796;2022-12-18T10:25:32;102561.41;;;-1.68;69.42
20368;BME280;10343;52.402;9.796;2022-12-18T10:28:12;102553.34;;;-1.73;69.54
20368;BME280;10343;52.402;9.796;2022-12-18T10:30:46;102564.09;;;-1.51;68.98
20368;BME280;10343;52.402;9.796;2022-12-18T10:33:21;102555.66;;;-1.47;68.85
20368;BME280;10343;52.402;9.796;2022-12-18T10:35:55;102559.91;;;-1.33;68.69
20368;BME280;10343;52.402;9.796;2022-12-18T10:38:25;102559.66;;;-1.38;68.91
20368;BME280;10343;52.402;9.796;2022-12-18T10:41:06;102556.13;;;-1.38;69.32
20368;BME280;10343;52.402;9.796;2022-12-18T10:43:47;102557.38;;;-1.31;69.43
20368;BME280;10343;52.402;9.796;2022-12-18T10:46:19;102553.41;;;-1.25;69.19
20368;BME280;10343;52.402;9.796;2022-12-18T10:48:53;102551.28;;;-1.32;69.47
20368;BME280;10343;52.402;9.796;2022-12-18T10:51:35;102546.41;;;-1.26;69.37
20368;BME280;10343;52.402;9.796;2022-12-18T10:54:22;102548.88;;;-1.12;69.11
20368;BME280;10343;52.402;9.796;2022-12-18T10:57:14;102540.53;;;-0.90;69.25
20368;BME280;10343;52.402;9.796;2022-12-18T10:59:51;102533.44;;;-0.76;68.14
20368;BME280;10343;52.402;9.796;2022-12-18T11:02:28;102518.69;;;-0.59;67.81
20368;BME280;10343;52.402;9.796;2022-12-18T11:05:24;102507.47;;;-0.24;66.92
20368;BME280;10343;52.402;9.796;2022-12-18T11:07:57;102503.50;;;-0.33;66.80
20368;BME280;10343;52.402;9.796;2022-12-18T11:10:31;102484.66;;;-0.28;66.53
20368;BME280;10343;52.402;9.796;2022-12-18T11:13:21;102497.69;;;-0.28;66.92
20368;BME280;10343;52.402;9.796;2022-12-18T11:16:17;102511.56;;;-0.29;66.00
20368;BME280;10343;52.402;9.796;2022-12-18T11:18:49;102513.53;;;-0.25;66.05
20368;BME280;10343;52.402;9.796;2022-12-18T11:21:18;102501.19;;;-0.11;65.67
20368;BME280;10343;52.402;9.796;2022-12-18T11:23:50;102509.06;;;-0.09;65.67
20368;BME280;10343;52.402;9.796;2022-12-18T11:26:41;102513.25;;;0.05;65.93
20368;BME280;10343;52.402;9.796;2022-12-18T11:29:18;102509.28;;;-0.05;65.24
20368;BME280;10343;52.402;9.796;2022-12-18T11:31:51;102507.41;;;-0.07;65.52
20368;BME280;10343;52.402;9.796;2022-12-18T11:40:53;102492.22;;;0.02;65.78
20368;BME280;10343;52.402;9.796;2022-12-18T11:52:14;102472.25;;;0.03;65.15
20368;BME280;10343;52.402;9.796;2022-12-18T12:00:25;102438.81;;;0.49;63.19
20368;BME280;10343;52.402;9.796;2022-12-18T12:12:34;102421.00;;;0.03;65.04
20368;BME280;10343;52.402;9.796;2022-12-18T12:15:27;102410.44;;;0.00;65.36
20368;BME280;10343;52.402;9.796;2022-12-18T12:18:32;102415.47;;;-0.03;65.85
20368;BME280;10343;52.402;9.796;2022-12-18T12:22:00;102408.41;;;-0.06;66.10
20368;BME280;10343;52.402;9.796;2022-12-18T12:40:26;102393.34;;;-0.11;63.86
20368;BME280;10343;52.402;9.796;2022-12-18T12:45:57;102398.81;;;-0.25;64.79
20368;BME280;10343;52.402;9.796;2022-12-18T12:49:02;102386.88;;;-0.20;64.31
20368;BME280;10343;52.402;9.796;2022-12-18T12:51:34;102381.50;;;-0.05;64.23
20368;BME280;10343;52.402;9.796;2022-12-18T12:54:14;102369.22;;;-0.25;64.69
20368;BME280;10343;52.402;9.796;2022-12-18T12:56:51;102376.00;;;-0.11;64.53
20368;BME280;10343;52.402;9.796;2022-12-18T12:59:32;102381.97;;;-0.13;64.64
20368;BME280;10343;52.402;9.796;2022-12-18T13:02:13;102383.91;;;-0.09;64.37
20368;BME280;10343;52.402;9.796;2022-12-18T13:04:49;102387.31;;;-0.10;64.18
20368;BME280;10343;52.402;9.796;2022-12-18T13:07:24;102366.75;;;-0.22;64.13
20368;BME280;10343;52.402;9.796;2022-12-18T13:10:25;102367.66;;;-0.22;63.69
20368;BME280;10343;52.402;9.796;2022-12-18T13:12:57;102363.47;;;-0.18;64.02
20368;BME280;10343;52.402;9.796;2022-12-18T13:15:30;102360.81;;;-0.20;63.91
20368;BME280;10343;52.402;9.796;2022-12-18T13:18:12;102355.75;;;-0.16;64.37
20368;BME280;10343;52.402;9.796;2022-12-18T13:20:44;102364.66;;;-0.11;64.16
20368;BME280;10343;52.402;9.796;2022-12-18T13:23:33;102377.66;;;-0.31;64.42
20368;BME280;10343;52.402;9.796;2022-12-18T13:26:32;102385.53;;;-0.47;65.14
20368;BME280;10343;52.402;9.796;2022-12-18T13:29:02;102386.34;;;-0.48;65.51
20368;BME280;10343;52.402;9.796;2022-12-18T13:34:29;102376.75;;;-0.49;65.55
20368;BME280;10343;52.402;9.796;2022-12-18T13:40:01;102381.06;;;-0.32;65.19
20368;BME280;10343;52.402;9.796;2022-12-18T13:42:40;102377.03;;;-0.43;65.75
20368;BME280;10343;52.402;9.796;2022-12-18T13:45:42;102376.16;;;-0.44;65.40
20368;BME280;10343;52.402;9.796;2022-12-18T13:48:22;102375.56;;;-0.56;65.53
20368;BME280;10343;52.402;9.796;2022-12-18T13:50:55;102359.00;;;-0.57;65.71
20368;BME280;10343;52.402;9.796;2022-12-18T13:53:30;102360.72;;;-0.75;65.94
20368;BME280;10343;52.402;9.796;2022-12-18T13:56:01;102359.69;;;-0.61;65.84
20368;BME280;10343;52.402;9.796;2022-12-18T13:58:31;102355.50;;;-0.75;66.15
20368;BME280;10343;52.402;9.796;2022-12-18T14:01:01;102354.22;;;-0.83;65.98
20368;BME280;10343;52.402;9.796;2022-12-18T14:03:31;102355.03;;;-0.84;66.53
20368;BME280;10343;52.402;9.796;2022-12-18T14:06:03;102350.38;;;-0.74;66.03
20368;BME280;10343;52.402;9.796;2022-12-18T14:08:37;102334.88;;;-0.89;66.41
20368;BME280;10343;52.402;9.796;2022-12-18T14:11:17;102337.38;;;-1.25;67.65
20368;BME280;10343;52.402;9.796;2022-12-18T14:13:49;102326.94;;;-1.08;67.86
20368;BME280;10343;52.402;9.796;2022-12-18T14:16:19;102324.84;;;-1.15;68.01
20368;BME280;10343;52.402;9.796;2022-12-18T14:18:52;102319.94;;;-1.09;67.79
20368;BME280;10343;52.402;9.796;2022-12-18T14:21:38;102325.91;;;-0.94;67.93
20368;BME280;10343;52.402;9.796;2022-12-18T14:24:14;102312.72;;;-1.15;68.25
20368;BME280;10343;52.402;9.796;2022-12-18T14:26:46;102311.13;;;-1.29;68.59
20368;BME280;10343;52.402;9.796;2022-12-18T14:29:24;102306.97;;;-1.42;68.82
20368;BME280;10343;52.402;9.796;2022-12-18T14:32:10;102310.88;;;-1.50;68.66
20368;BME280;10343;52.402;9.796;2022-12-18T14:34:44;102304.44;;;-1.41;68.70
20368;BME280;10343;52.402;9.796;2022-12-18T14:37:14;102295.84;;;-1.40;69.11